Salas De Los Infantes, Spain
Current Conditions -  °F | °C
As of 4:00 PM on Thursday 30 Oct 2014 (Local Time) from LEBG Reporting Station
Few Clouds Few Clouds  
Wind Chill: 73°   Ceiling: Unl
Heat Index: 73°   Visibility: 6mi
Dew Point: 37°   Wind: 6mph
Humidity: 27%   Direction: 230°SW
Pressure: 30.21"   Gusts: NA
Location:  42.02°N, 3.29°W
Report Text: LEBG 301500Z 23005KT 200V280 9999 FEW030 23/03 Q1023
Loading
Personal Weather Stations






























Interactive Weather Map
Tropical Storm Tracking
New forecast layout! Learn more

10-Day Weather Forecast

Advertisements
Track Severe Weather on mobile